SBOSBO LIN / LIML
Speedbird OnlineSpeedbird Online LIN / LIML

Milano Linate Airport
08:17 14.3°C

Location Milan, Italy
Latitude: 45.445099
Longitude: 9.27674
Web Airport Website | Wikipedia
Altitude 108 Meter / 353 Feet
Distance 953 KM / 592 Miles
from London.
Time Zone UTC +2 hours (Europe/Rome)
Codes IATA: LIN
ICAO: LIML
Currency £1 equals EUR 1.15
Runways
RunwayLength (m)Surface
17601Tarmac
182440Asphalt
35601Tarmac
362440Asphalt
Radio
TypeDescriptionFrequency
APPMILANO APP132.7
ATISATIS135.55
DEPMILANO DEP126.75
GNDGND121.8
TWRTWR118.1
Live ATC
METAR LIML 060550Z 04002KT 4000 BR SCT040 13/13 Q1027 NOSIG
TAF TAF LIML 060500Z 0606/0706 VRB05KT 7000 SCT040 TEMPO 0622/0706 3000 BR
Weather As Of 06 Oct 2022 08:17
Description Mist
Wind 4 km/h from North-East (40°)
Cloud Cover 40%
Precipitation Rain: none, Snow: none
Sunrise 07:26
Sunset 18:54
Lounges British Airways Lounge (Open), Main Departures Area
Rotations During the last 90 days there were
309 flights from LHR
2 flights from MXP
310 flights to LHR
1 flights to BOH


© 2017-2022 Speedbird Online